sensor_id;sensor_type;location;lat;lon;timestamp;P1;durP1;ratioP1;P2;durP2;ratioP2
14015;SDS011;7083;48.854;9.158;2024-03-06T00:00:54;4.40;;;4.00;;
14015;SDS011;7083;48.854;9.158;2024-03-06T00:03:21;3.87;;;3.67;;
14015;SDS011;7083;48.854;9.158;2024-03-06T00:05:48;4.23;;;3.73;;
14015;SDS011;7083;48.854;9.158;2024-03-06T00:08:17;4.87;;;3.70;;
14015;SDS011;7083;48.854;9.158;2024-03-06T00:10:46;3.27;;;3.07;;
14015;SDS011;7083;48.854;9.158;2024-03-06T00:13:14;3.80;;;3.30;;
14015;SDS011;7083;48.854;9.158;2024-03-06T00:15:44;4.20;;;3.77;;
14015;SDS011;7083;48.854;9.158;2024-03-06T00:18:10;4.73;;;3.67;;
14015;SDS011;7083;48.854;9.158;2024-03-06T00:20:37;3.97;;;3.77;;
14015;SDS011;7083;48.854;9.158;2024-03-06T00:23:05;3.83;;;3.63;;
14015;SDS011;7083;48.854;9.158;2024-03-06T00:25:32;3.90;;;3.70;;
14015;SDS011;7083;48.854;9.158;2024-03-06T00:27:59;3.90;;;3.60;;
14015;SDS011;7083;48.854;9.158;2024-03-06T00:30:27;3.63;;;3.43;;
14015;SDS011;7083;48.854;9.158;2024-03-06T00:32:54;3.63;;;3.43;;
14015;SDS011;7083;48.854;9.158;2024-03-06T00:35:21;3.87;;;3.67;;
14015;SDS011;7083;48.854;9.158;2024-03-06T00:37:47;3.93;;;3.63;;
14015;SDS011;7083;48.854;9.158;2024-03-06T00:40:14;3.87;;;3.57;;
14015;SDS011;7083;48.854;9.158;2024-03-06T00:42:41;3.77;;;3.50;;
14015;SDS011;7083;48.854;9.158;2024-03-06T00:45:08;4.33;;;3.93;;
14015;SDS011;7083;48.854;9.158;2024-03-06T00:47:37;4.80;;;4.33;;
14015;SDS011;7083;48.854;9.158;2024-03-06T00:53:16;3.80;;;3.40;;
14015;SDS011;7083;48.854;9.158;2024-03-06T00:55:43;4.60;;;3.83;;
14015;SDS011;7083;48.854;9.158;2024-03-06T00:58:15;5.03;;;4.53;;
14015;SDS011;7083;48.854;9.158;2024-03-06T01:00:47;3.40;;;3.20;;
14015;SDS011;7083;48.854;9.158;2024-03-06T01:03:18;4.63;;;3.60;;
14015;SDS011;7083;48.854;9.158;2024-03-06T01:05:47;3.67;;;3.38;;
14015;SDS011;7083;48.854;9.158;2024-03-06T01:08:14;3.50;;;3.20;;
14015;SDS011;7083;48.854;9.158;2024-03-06T01:10:42;3.40;;;3.20;;
14015;SDS011;7083;48.854;9.158;2024-03-06T01:13:09;3.60;;;3.37;;
14015;SDS011;7083;48.854;9.158;2024-03-06T01:15:36;3.73;;;3.43;;
14015;SDS011;7083;48.854;9.158;2024-03-06T01:18:03;3.53;;;3.30;;
14015;SDS011;7083;48.854;9.158;2024-03-06T01:20:32;3.73;;;3.43;;
14015;SDS011;7083;48.854;9.158;2024-03-06T01:22:59;3.70;;;3.47;;
14015;SDS011;7083;48.854;9.158;2024-03-06T01:25:26;4.20;;;3.90;;
14015;SDS011;7083;48.854;9.158;2024-03-06T01:27:52;4.00;;;3.80;;
14015;SDS011;7083;48.854;9.158;2024-03-06T01:30:19;4.03;;;3.77;;
14015;SDS011;7083;48.854;9.158;2024-03-06T01:32:46;3.20;;;3.00;;
14015;SDS011;7083;48.854;9.158;2024-03-06T01:35:13;4.37;;;4.07;;
14015;SDS011;7083;48.854;9.158;2024-03-06T01:37:41;4.30;;;3.97;;
14015;SDS011;7083;48.854;9.158;2024-03-06T01:40:09;5.30;;;4.40;;
14015;SDS011;7083;48.854;9.158;2024-03-06T01:42:37;4.05;;;3.78;;
14015;SDS011;7083;48.854;9.158;2024-03-06T01:45:04;3.93;;;3.60;;
14015;SDS011;7083;48.854;9.158;2024-03-06T01:47:32;3.60;;;3.40;;
14015;SDS011;7083;48.854;9.158;2024-03-06T01:49:59;3.83;;;3.53;;
14015;SDS011;7083;48.854;9.158;2024-03-06T01:52:26;3.77;;;3.40;;
14015;SDS011;7083;48.854;9.158;2024-03-06T01:54:55;5.27;;;3.83;;
14015;SDS011;7083;48.854;9.158;2024-03-06T01:57:22;3.57;;;3.37;;
14015;SDS011;7083;48.854;9.158;2024-03-06T01:59:49;3.33;;;3.13;;
14015;SDS011;7083;48.854;9.158;2024-03-06T02:02:16;4.30;;;3.93;;
14015;SDS011;7083;48.854;9.158;2024-03-06T02:04:43;3.63;;;3.33;;
14015;SDS011;7083;48.854;9.158;2024-03-06T02:07:10;3.37;;;3.03;;
14015;SDS011;7083;48.854;9.158;2024-03-06T02:09:39;4.03;;;3.80;;
14015;SDS011;7083;48.854;9.158;2024-03-06T02:12:10;3.73;;;3.43;;
14015;SDS011;7083;48.854;9.158;2024-03-06T02:14:37;3.73;;;3.53;;
14015;SDS011;7083;48.854;9.158;2024-03-06T02:17:30;3.77;;;3.47;;
14015;SDS011;7083;48.854;9.158;2024-03-06T02:20:37;3.77;;;3.57;;
14015;SDS011;7083;48.854;9.158;2024-03-06T02:23:30;4.97;;;3.80;;
14015;SDS011;7083;48.854;9.158;2024-03-06T02:25:59;4.13;;;3.80;;
14015;SDS011;7083;48.854;9.158;2024-03-06T02:28:27;4.30;;;4.00;;
14015;SDS011;7083;48.854;9.158;2024-03-06T02:30:55;3.77;;;3.47;;
14015;SDS011;7083;48.854;9.158;2024-03-06T02:33:21;4.70;;;4.30;;
14015;SDS011;7083;48.854;9.158;2024-03-06T02:35:49;4.07;;;3.67;;
14015;SDS011;7083;48.854;9.158;2024-03-06T02:38:16;4.40;;;4.10;;
14015;SDS011;7083;48.854;9.158;2024-03-06T02:40:43;5.03;;;4.40;;
14015;SDS011;7083;48.854;9.158;2024-03-06T02:43:10;4.50;;;4.20;;
14015;SDS011;7083;48.854;9.158;2024-03-06T02:45:37;3.77;;;3.57;;
14015;SDS011;7083;48.854;9.158;2024-03-06T02:48:04;4.03;;;3.63;;
14015;SDS011;7083;48.854;9.158;2024-03-06T02:50:31;3.70;;;3.50;;
14015;SDS011;7083;48.854;9.158;2024-03-06T02:52:59;4.00;;;3.70;;
14015;SDS011;7083;48.854;9.158;2024-03-06T02:55:26;3.97;;;3.77;;
14015;SDS011;7083;48.854;9.158;2024-03-06T02:57:53;4.20;;;3.90;;
14015;SDS011;7083;48.854;9.158;2024-03-06T03:00:19;4.07;;;3.87;;
14015;SDS011;7083;48.854;9.158;2024-03-06T03:02:46;4.53;;;4.23;;
14015;SDS011;7083;48.854;9.158;2024-03-06T03:05:13;4.10;;;3.90;;
14015;SDS011;7083;48.854;9.158;2024-03-06T03:07:41;4.13;;;3.73;;
14015;SDS011;7083;48.854;9.158;2024-03-06T03:10:09;4.77;;;4.10;;
14015;SDS011;7083;48.854;9.158;2024-03-06T03:12:38;4.20;;;3.90;;
14015;SDS011;7083;48.854;9.158;2024-03-06T03:15:15;4.67;;;4.33;;
14015;SDS011;7083;48.854;9.158;2024-03-06T03:17:43;4.77;;;4.00;;
14015;SDS011;7083;48.854;9.158;2024-03-06T03:20:10;4.13;;;3.80;;
14015;SDS011;7083;48.854;9.158;2024-03-06T03:22:37;3.70;;;3.50;;
14015;SDS011;7083;48.854;9.158;2024-03-06T03:25:06;4.27;;;3.90;;
14015;SDS011;7083;48.854;9.158;2024-03-06T03:27:36;4.00;;;3.60;;
14015;SDS011;7083;48.854;9.158;2024-03-06T03:30:03;3.20;;;3.00;;
14015;SDS011;7083;48.854;9.158;2024-03-06T03:32:34;4.50;;;3.57;;
14015;SDS011;7083;48.854;9.158;2024-03-06T03:35:00;3.53;;;3.23;;
14015;SDS011;7083;48.854;9.158;2024-03-06T03:37:27;3.60;;;3.40;;
14015;SDS011;7083;48.854;9.158;2024-03-06T03:39:54;3.50;;;3.30;;
14015;SDS011;7083;48.854;9.158;2024-03-06T03:42:22;4.07;;;3.70;;
14015;SDS011;7083;48.854;9.158;2024-03-06T03:44:49;3.90;;;3.60;;
14015;SDS011;7083;48.854;9.158;2024-03-06T03:47:16;3.90;;;3.70;;
14015;SDS011;7083;48.854;9.158;2024-03-06T03:49:56;4.10;;;3.77;;
14015;SDS011;7083;48.854;9.158;2024-03-06T03:52:26;4.60;;;4.00;;
14015;SDS011;7083;48.854;9.158;2024-03-06T03:54:54;4.90;;;3.47;;
14015;SDS011;7083;48.854;9.158;2024-03-06T03:57:22;3.77;;;3.47;;
14015;SDS011;7083;48.854;9.158;2024-03-06T03:59:49;4.17;;;3.87;;
14015;SDS011;7083;48.854;9.158;2024-03-06T04:02:16;6.17;;;4.20;;
14015;SDS011;7083;48.854;9.158;2024-03-06T04:04:43;4.30;;;3.97;;
14015;SDS011;7083;48.854;9.158;2024-03-06T04:07:12;4.37;;;4.00;;
14015;SDS011;7083;48.854;9.158;2024-03-06T04:09:41;4.50;;;4.27;;
14015;SDS011;7083;48.854;9.158;2024-03-06T04:12:08;7.00;;;4.23;;
14015;SDS011;7083;48.854;9.158;2024-03-06T04:14:36;4.17;;;3.93;;
14015;SDS011;7083;48.854;9.158;2024-03-06T04:17:02;4.23;;;3.93;;
14015;SDS011;7083;48.854;9.158;2024-03-06T04:19:40;4.47;;;3.70;;
14015;SDS011;7083;48.854;9.158;2024-03-06T04:22:06;5.03;;;4.63;;
14015;SDS011;7083;48.854;9.158;2024-03-06T04:24:36;6.40;;;4.20;;
14015;SDS011;7083;48.854;9.158;2024-03-06T04:27:07;4.63;;;4.20;;
14015;SDS011;7083;48.854;9.158;2024-03-06T04:29:35;5.37;;;4.30;;
14015;SDS011;7083;48.854;9.158;2024-03-06T04:32:03;4.13;;;3.83;;
14015;SDS011;7083;48.854;9.158;2024-03-06T04:37:14;4.10;;;3.80;;
14015;SDS011;7083;48.854;9.158;2024-03-06T04:39:41;4.50;;;4.20;;
14015;SDS011;7083;48.854;9.158;2024-03-06T04:42:08;4.40;;;4.00;;
14015;SDS011;7083;48.854;9.158;2024-03-06T04:44:37;4.70;;;4.30;;
14015;SDS011;7083;48.854;9.158;2024-03-06T04:47:08;5.23;;;3.97;;
14015;SDS011;7083;48.854;9.158;2024-03-06T04:49:36;4.67;;;4.37;;
14015;SDS011;7083;48.854;9.158;2024-03-06T04:52:03;6.37;;;5.40;;
14015;SDS011;7083;48.854;9.158;2024-03-06T04:54:30;5.30;;;4.80;;
14015;SDS011;7083;48.854;9.158;2024-03-06T04:56:57;5.33;;;4.87;;
14015;SDS011;7083;48.854;9.158;2024-03-06T04:59:24;6.63;;;4.83;;
14015;SDS011;7083;48.854;9.158;2024-03-06T05:01:52;5.23;;;4.83;;
14015;SDS011;7083;48.854;9.158;2024-03-06T05:04:19;5.00;;;4.70;;
14015;SDS011;7083;48.854;9.158;2024-03-06T05:06:46;5.40;;;5.00;;
14015;SDS011;7083;48.854;9.158;2024-03-06T05:09:13;7.17;;;4.97;;
14015;SDS011;7083;48.854;9.158;2024-03-06T05:11:40;6.00;;;5.50;;
14015;SDS011;7083;48.854;9.158;2024-03-06T05:14:06;5.00;;;4.57;;
14015;SDS011;7083;48.854;9.158;2024-03-06T05:16:33;5.60;;;4.80;;
14015;SDS011;7083;48.854;9.158;2024-03-06T05:19:02;5.13;;;4.53;;
14015;SDS011;7083;48.854;9.158;2024-03-06T05:21:29;5.97;;;5.47;;
14015;SDS011;7083;48.854;9.158;2024-03-06T05:23:56;5.30;;;4.80;;
14015;SDS011;7083;48.854;9.158;2024-03-06T05:26:23;7.03;;;5.90;;
14015;SDS011;7083;48.854;9.158;2024-03-06T05:28:50;6.27;;;4.83;;
14015;SDS011;7083;48.854;9.158;2024-03-06T05:31:17;5.63;;;5.07;;
14015;SDS011;7083;48.854;9.158;2024-03-06T05:33:46;6.23;;;4.83;;
14015;SDS011;7083;48.854;9.158;2024-03-06T05:36:15;6.00;;;5.50;;
14015;SDS011;7083;48.854;9.158;2024-03-06T05:38:43;5.93;;;4.83;;
14015;SDS011;7083;48.854;9.158;2024-03-06T05:41:10;5.57;;;5.17;;
14015;SDS011;7083;48.854;9.158;2024-03-06T05:43:40;7.53;;;5.20;;
14015;SDS011;7083;48.854;9.158;2024-03-06T05:46:12;6.20;;;5.70;;
14015;SDS011;7083;48.854;9.158;2024-03-06T05:48:40;7.13;;;6.27;;
14015;SDS011;7083;48.854;9.158;2024-03-06T05:51:07;6.17;;;5.67;;
14015;SDS011;7083;48.854;9.158;2024-03-06T05:57:20;7.00;;;5.13;;
14015;SDS011;7083;48.854;9.158;2024-03-06T06:02:33;9.70;;;6.23;;
14015;SDS011;7083;48.854;9.158;2024-03-06T06:05:08;6.83;;;6.23;;
14015;SDS011;7083;48.854;9.158;2024-03-06T06:07:37;8.00;;;6.70;;
14015;SDS011;7083;48.854;9.158;2024-03-06T06:13:18;6.83;;;5.53;;
14015;SDS011;7083;48.854;9.158;2024-03-06T06:15:45;6.50;;;5.90;;
14015;SDS011;7083;48.854;9.158;2024-03-06T06:18:12;7.20;;;6.30;;
14015;SDS011;7083;48.854;9.158;2024-03-06T06:20:40;9.70;;;6.60;;
14015;SDS011;7083;48.854;9.158;2024-03-06T06:23:07;8.60;;;6.23;;
14015;SDS011;7083;48.854;9.158;2024-03-06T06:25:34;7.47;;;6.50;;
14015;SDS011;7083;48.854;9.158;2024-03-06T06:28:01;6.60;;;6.00;;
14015;SDS011;7083;48.854;9.158;2024-03-06T06:30:29;7.30;;;5.67;;
14015;SDS011;7083;48.854;9.158;2024-03-06T06:32:55;6.40;;;5.80;;
14015;SDS011;7083;48.854;9.158;2024-03-06T06:35:22;6.53;;;5.93;;
14015;SDS011;7083;48.854;9.158;2024-03-06T06:37:50;7.23;;;6.60;;
14015;SDS011;7083;48.854;9.158;2024-03-06T06:40:16;6.50;;;5.90;;
14015;SDS011;7083;48.854;9.158;2024-03-06T06:42:44;6.80;;;6.10;;
14015;SDS011;7083;48.854;9.158;2024-03-06T06:45:14;7.13;;;6.43;;
14015;SDS011;7083;48.854;9.158;2024-03-06T06:47:45;8.43;;;7.47;;
14015;SDS011;7083;48.854;9.158;2024-03-06T06:50:24;7.30;;;6.67;;
14015;SDS011;7083;48.854;9.158;2024-03-06T06:55:33;7.03;;;6.33;;
14015;SDS011;7083;48.854;9.158;2024-03-06T06:58:01;7.37;;;6.50;;
14015;SDS011;7083;48.854;9.158;2024-03-06T07:00:27;8.17;;;5.70;;
14015;SDS011;7083;48.854;9.158;2024-03-06T07:02:56;7.40;;;6.70;;
14015;SDS011;7083;48.854;9.158;2024-03-06T07:05:24;7.50;;;6.87;;
14015;SDS011;7083;48.854;9.158;2024-03-06T07:07:51;8.27;;;7.57;;
14015;SDS011;7083;48.854;9.158;2024-03-06T07:10:18;8.20;;;7.40;;
14015;SDS011;7083;48.854;9.158;2024-03-06T07:12:45;10.03;;;7.23;;
14015;SDS011;7083;48.854;9.158;2024-03-06T07:15:12;8.67;;;7.87;;
14015;SDS011;7083;48.854;9.158;2024-03-06T07:17:39;8.07;;;6.13;;
14015;SDS011;7083;48.854;9.158;2024-03-06T07:20:07;7.40;;;6.70;;
14015;SDS011;7083;48.854;9.158;2024-03-06T07:22:35;6.73;;;6.23;;
14015;SDS011;7083;48.854;9.158;2024-03-06T07:25:02;7.67;;;6.87;;
14015;SDS011;7083;48.854;9.158;2024-03-06T07:27:30;7.93;;;7.13;;
14015;SDS011;7083;48.854;9.158;2024-03-06T07:29:57;7.33;;;6.27;;
14015;SDS011;7083;48.854;9.158;2024-03-06T07:32:27;7.80;;;7.20;;
14015;SDS011;7083;48.854;9.158;2024-03-06T07:34:54;6.80;;;6.20;;
14015;SDS011;7083;48.854;9.158;2024-03-06T07:37:22;8.53;;;6.47;;
14015;SDS011;7083;48.854;9.158;2024-03-06T07:39:49;8.13;;;6.97;;
14015;SDS011;7083;48.854;9.158;2024-03-06T07:42:15;7.87;;;7.03;;
14015;SDS011;7083;48.854;9.158;2024-03-06T07:44:43;7.67;;;6.97;;
14015;SDS011;7083;48.854;9.158;2024-03-06T07:47:09;7.90;;;6.83;;
14015;SDS011;7083;48.854;9.158;2024-03-06T07:49:37;6.77;;;6.10;;
14015;SDS011;7083;48.854;9.158;2024-03-06T07:52:04;7.23;;;6.53;;
14015;SDS011;7083;48.854;9.158;2024-03-06T07:54:32;7.50;;;6.80;;
14015;SDS011;7083;48.854;9.158;2024-03-06T07:56:59;7.07;;;6.47;;
14015;SDS011;7083;48.854;9.158;2024-03-06T07:59:25;7.10;;;6.43;;
14015;SDS011;7083;48.854;9.158;2024-03-06T08:01:52;7.20;;;6.53;;
14015;SDS011;7083;48.854;9.158;2024-03-06T08:04:20;13.43;;;7.10;;
14015;SDS011;7083;48.854;9.158;2024-03-06T08:06:48;8.37;;;7.57;;
14015;SDS011;7083;48.854;9.158;2024-03-06T08:09:15;9.20;;;8.40;;
14015;SDS011;7083;48.854;9.158;2024-03-06T08:11:45;8.17;;;7.27;;
14015;SDS011;7083;48.854;9.158;2024-03-06T08:14:12;7.27;;;6.77;;
14015;SDS011;7083;48.854;9.158;2024-03-06T08:16:39;7.80;;;6.67;;
14015;SDS011;7083;48.854;9.158;2024-03-06T08:19:07;7.73;;;7.13;;
14015;SDS011;7083;48.854;9.158;2024-03-06T08:21:34;9.87;;;8.37;;
14015;SDS011;7083;48.854;9.158;2024-03-06T08:24:01;8.30;;;7.50;;
14015;SDS011;7083;48.854;9.158;2024-03-06T08:26:28;8.77;;;7.87;;
14015;SDS011;7083;48.854;9.158;2024-03-06T08:28:56;10.50;;;8.07;;
14015;SDS011;7083;48.854;9.158;2024-03-06T08:31:23;12.70;;;8.23;;
14015;SDS011;7083;48.854;9.158;2024-03-06T08:33:50;9.00;;;8.10;;
14015;SDS011;7083;48.854;9.158;2024-03-06T08:36:18;9.23;;;8.30;;
14015;SDS011;7083;48.854;9.158;2024-03-06T08:38:45;9.63;;;8.50;;
14015;SDS011;7083;48.854;9.158;2024-03-06T08:41:12;9.73;;;8.73;;
14015;SDS011;7083;48.854;9.158;2024-03-06T08:43:39;8.53;;;7.73;;
14015;SDS011;7083;48.854;9.158;2024-03-06T08:46:07;8.90;;;8.10;;
14015;SDS011;7083;48.854;9.158;2024-03-06T08:48:33;9.00;;;7.87;;
14015;SDS011;7083;48.854;9.158;2024-03-06T08:51:00;8.50;;;7.70;;
14015;SDS011;7083;48.854;9.158;2024-03-06T08:53:28;10.60;;;7.23;;
14015;SDS011;7083;48.854;9.158;2024-03-06T08:55:54;7.83;;;7.20;;
14015;SDS011;7083;48.854;9.158;2024-03-06T08:58:21;9.40;;;8.10;;
14015;SDS011;7083;48.854;9.158;2024-03-06T09:00:48;8.60;;;7.93;;
14015;SDS011;7083;48.854;9.158;2024-03-06T09:03:16;10.30;;;7.67;;
14015;SDS011;7083;48.854;9.158;2024-03-06T09:05:43;9.87;;;8.63;;
14015;SDS011;7083;48.854;9.158;2024-03-06T09:08:09;9.33;;;8.43;;
14015;SDS011;7083;48.854;9.158;2024-03-06T09:10:37;11.33;;;8.47;;
14015;SDS011;7083;48.854;9.158;2024-03-06T09:13:04;8.70;;;7.90;;
14015;SDS011;7083;48.854;9.158;2024-03-06T09:15:30;8.57;;;7.87;;
14015;SDS011;7083;48.854;9.158;2024-03-06T09:17:57;10.15;;;9.20;;
14015;SDS011;7083;48.854;9.158;2024-03-06T09:20:25;10.57;;;9.53;;
14015;SDS011;7083;48.854;9.158;2024-03-06T09:22:52;13.27;;;7.73;;
14015;SDS011;7083;48.854;9.158;2024-03-06T09:25:19;9.47;;;7.53;;
14015;SDS011;7083;48.854;9.158;2024-03-06T09:27:46;8.27;;;7.57;;
14015;SDS011;7083;48.854;9.158;2024-03-06T09:30:13;9.40;;;8.50;;
14015;SDS011;7083;48.854;9.158;2024-03-06T09:32:40;10.00;;;9.13;;
14015;SDS011;7083;48.854;9.158;2024-03-06T09:35:09;9.00;;;8.20;;
14015;SDS011;7083;48.854;9.158;2024-03-06T09:37:37;9.33;;;8.53;;
14015;SDS011;7083;48.854;9.158;2024-03-06T09:40:04;10.60;;;9.80;;
14015;SDS011;7083;48.854;9.158;2024-03-06T09:42:32;10.87;;;9.97;;
14015;SDS011;7083;48.854;9.158;2024-03-06T09:44:59;10.60;;;9.70;;
14015;SDS011;7083;48.854;9.158;2024-03-06T09:47:27;11.60;;;10.57;;
14015;SDS011;7083;48.854;9.158;2024-03-06T09:49:57;11.47;;;10.60;;
14015;SDS011;7083;48.854;9.158;2024-03-06T09:52:24;12.90;;;11.70;;
14015;SDS011;7083;48.854;9.158;2024-03-06T09:54:52;14.83;;;12.97;;
14015;SDS011;7083;48.854;9.158;2024-03-06T09:57:20;12.80;;;11.63;;
14015;SDS011;7083;48.854;9.158;2024-03-06T09:59:47;13.53;;;12.23;;
14015;SDS011;7083;48.854;9.158;2024-03-06T10:02:18;12.67;;;11.37;;
14015;SDS011;7083;48.854;9.158;2024-03-06T10:04:57;13.73;;;12.47;;
14015;SDS011;7083;48.854;9.158;2024-03-06T10:07:24;13.23;;;12.23;;
14015;SDS011;7083;48.854;9.158;2024-03-06T10:09:53;14.60;;;13.20;;
14015;SDS011;7083;48.854;9.158;2024-03-06T10:12:22;17.27;;;15.70;;
14015;SDS011;7083;48.854;9.158;2024-03-06T10:14:49;17.83;;;16.23;;
14015;SDS011;7083;48.854;9.158;2024-03-06T10:17:18;19.30;;;17.73;;
14015;SDS011;7083;48.854;9.158;2024-03-06T10:19:48;18.63;;;17.07;;
14015;SDS011;7083;48.854;9.158;2024-03-06T10:22:16;17.73;;;16.03;;
14015;SDS011;7083;48.854;9.158;2024-03-06T10:24:44;17.60;;;16.10;;
14015;SDS011;7083;48.854;9.158;2024-03-06T10:27:15;18.83;;;17.13;;
14015;SDS011;7083;48.854;9.158;2024-03-06T10:29:43;18.77;;;17.17;;
14015;SDS011;7083;48.854;9.158;2024-03-06T10:32:10;19.03;;;17.30;;
14015;SDS011;7083;48.854;9.158;2024-03-06T10:34:44;22.00;;;17.73;;
14015;SDS011;7083;48.854;9.158;2024-03-06T10:37:11;20.87;;;18.87;;
14015;SDS011;7083;48.854;9.158;2024-03-06T10:39:39;21.97;;;19.70;;
14015;SDS011;7083;48.854;9.158;2024-03-06T10:42:09;20.97;;;19.03;;
14015;SDS011;7083;48.854;9.158;2024-03-06T10:44:42;22.90;;;20.67;;
14015;SDS011;7083;48.854;9.158;2024-03-06T10:47:16;23.43;;;21.20;;
14015;SDS011;7083;48.854;9.158;2024-03-06T10:49:46;24.43;;;22.23;;
14015;SDS011;7083;48.854;9.158;2024-03-06T10:52:13;24.10;;;21.60;;
14015;SDS011;7083;48.854;9.158;2024-03-06T10:54:41;25.20;;;22.77;;
14015;SDS011;7083;48.854;9.158;2024-03-06T10:57:11;23.50;;;21.20;;
14015;SDS011;7083;48.854;9.158;2024-03-06T10:59:39;25.97;;;23.53;;
14015;SDS011;7083;48.854;9.158;2024-03-06T11:02:08;25.50;;;23.17;;
14015;SDS011;7083;48.854;9.158;2024-03-06T11:04:37;26.17;;;23.57;;
14015;SDS011;7083;48.854;9.158;2024-03-06T11:07:06;26.73;;;24.23;;
14015;SDS011;7083;48.854;9.158;2024-03-06T11:09:34;26.73;;;22.70;;
14015;SDS011;7083;48.854;9.158;2024-03-06T11:12:04;26.90;;;24.47;;
14015;SDS011;7083;48.854;9.158;2024-03-06T11:14:32;26.10;;;23.57;;
14015;SDS011;7083;48.854;9.158;2024-03-06T11:17:02;26.03;;;23.43;;
14015;SDS011;7083;48.854;9.158;2024-03-06T11:19:30;27.53;;;23.47;;
14015;SDS011;7083;48.854;9.158;2024-03-06T11:21:58;28.83;;;26.33;;
14015;SDS011;7083;48.854;9.158;2024-03-06T11:24:31;29.60;;;27.00;;
14015;SDS011;7083;48.854;9.158;2024-03-06T11:26:59;30.50;;;27.30;;
14015;SDS011;7083;48.854;9.158;2024-03-06T11:29:27;31.50;;;28.20;;
14015;SDS011;7083;48.854;9.158;2024-03-06T11:31:59;29.63;;;26.83;;
14015;SDS011;7083;48.854;9.158;2024-03-06T11:34:32;29.10;;;25.97;;
14015;SDS011;7083;48.854;9.158;2024-03-06T11:36:59;27.93;;;25.17;;
14015;SDS011;7083;48.854;9.158;2024-03-06T11:39:33;29.40;;;25.90;;
14015;SDS011;7083;48.854;9.158;2024-03-06T11:42:01;32.60;;;28.27;;
14015;SDS011;7083;48.854;9.158;2024-03-06T11:44:28;30.03;;;26.87;;
14015;SDS011;7083;48.854;9.158;2024-03-06T11:46:59;31.33;;;28.03;;
14015;SDS011;7083;48.854;9.158;2024-03-06T11:49:27;30.37;;;26.83;;
14015;SDS011;7083;48.854;9.158;2024-03-06T11:51:57;31.77;;;27.50;;
14015;SDS011;7083;48.854;9.158;2024-03-06T11:54:26;34.73;;;29.53;;
14015;SDS011;7083;48.854;9.158;2024-03-06T11:56:53;33.23;;;29.27;;
14015;SDS011;7083;48.854;9.158;2024-03-06T11:59:21;35.17;;;31.33;;
14015;SDS011;7083;48.854;9.158;2024-03-06T12:01:49;32.63;;;29.30;;
14015;SDS011;7083;48.854;9.158;2024-03-06T12:04:16;34.40;;;30.73;;
14015;SDS011;7083;48.854;9.158;2024-03-06T12:06:45;35.47;;;31.77;;
14015;SDS011;7083;48.854;9.158;2024-03-06T12:09:13;34.50;;;30.83;;
14015;SDS011;7083;48.854;9.158;2024-03-06T12:11:40;31.83;;;28.73;;
14015;SDS011;7083;48.854;9.158;2024-03-06T12:14:12;34.27;;;30.90;;
14015;SDS011;7083;48.854;9.158;2024-03-06T12:16:41;33.93;;;30.57;;
14015;SDS011;7083;48.854;9.158;2024-03-06T12:19:08;32.30;;;29.27;;
14015;SDS011;7083;48.854;9.158;2024-03-06T12:21:35;32.33;;;25.87;;
14015;SDS011;7083;48.854;9.158;2024-03-06T12:24:04;30.73;;;26.17;;
14015;SDS011;7083;48.854;9.158;2024-03-06T12:26:32;32.07;;;27.30;;
14015;SDS011;7083;48.854;9.158;2024-03-06T12:29:06;32.00;;;28.90;;
14015;SDS011;7083;48.854;9.158;2024-03-06T12:31:34;30.77;;;27.50;;
14015;SDS011;7083;48.854;9.158;2024-03-06T12:34:02;31.83;;;26.90;;
14015;SDS011;7083;48.854;9.158;2024-03-06T12:36:29;31.27;;;28.00;;
14015;SDS011;7083;48.854;9.158;2024-03-06T12:38:58;35.80;;;32.10;;
14015;SDS011;7083;48.854;9.158;2024-03-06T12:41:27;35.87;;;32.53;;
14015;SDS011;7083;48.854;9.158;2024-03-06T12:43:55;33.20;;;30.27;;
14015;SDS011;7083;48.854;9.158;2024-03-06T12:46:22;34.43;;;31.23;;
14015;SDS011;7083;48.854;9.158;2024-03-06T12:48:51;34.10;;;30.67;;
14015;SDS011;7083;48.854;9.158;2024-03-06T12:51:18;32.17;;;28.97;;
14015;SDS011;7083;48.854;9.158;2024-03-06T12:53:45;33.07;;;29.93;;
14015;SDS011;7083;48.854;9.158;2024-03-06T12:56:13;31.27;;;28.00;;
14015;SDS011;7083;48.854;9.158;2024-03-06T12:58:41;31.13;;;27.83;;
14015;SDS011;7083;48.854;9.158;2024-03-06T13:01:07;32.33;;;27.10;;
14015;SDS011;7083;48.854;9.158;2024-03-06T13:03:35;32.73;;;29.50;;
14015;SDS011;7083;48.854;9.158;2024-03-06T13:06:02;31.47;;;28.67;;
14015;SDS011;7083;48.854;9.158;2024-03-06T13:08:30;28.97;;;25.97;;
14015;SDS011;7083;48.854;9.158;2024-03-06T13:10:56;28.00;;;25.30;;
14015;SDS011;7083;48.854;9.158;2024-03-06T13:13:23;29.37;;;26.40;;
14015;SDS011;7083;48.854;9.158;2024-03-06T13:15:52;34.37;;;31.07;;
14015;SDS011;7083;48.854;9.158;2024-03-06T13:18:18;28.60;;;25.60;;
14015;SDS011;7083;48.854;9.158;2024-03-06T13:20:45;33.10;;;30.20;;
14015;SDS011;7083;48.854;9.158;2024-03-06T13:23:12;30.10;;;27.23;;
14015;SDS011;7083;48.854;9.158;2024-03-06T13:25:39;28.90;;;26.27;;
14015;SDS011;7083;48.854;9.158;2024-03-06T13:28:06;29.80;;;27.10;;
14015;SDS011;7083;48.854;9.158;2024-03-06T13:30:33;27.33;;;24.97;;
14015;SDS011;7083;48.854;9.158;2024-03-06T13:33:02;28.77;;;26.07;;
14015;SDS011;7083;48.854;9.158;2024-03-06T13:35:29;26.97;;;24.37;;
14015;SDS011;7083;48.854;9.158;2024-03-06T13:37:58;28.33;;;25.73;;
14015;SDS011;7083;48.854;9.158;2024-03-06T13:40:25;26.43;;;24.10;;
14015;SDS011;7083;48.854;9.158;2024-03-06T13:42:52;27.83;;;25.23;;
14015;SDS011;7083;48.854;9.158;2024-03-06T13:45:18;23.23;;;21.23;;
14015;SDS011;7083;48.854;9.158;2024-03-06T13:47:45;26.53;;;23.83;;
14015;SDS011;7083;48.854;9.158;2024-03-06T13:50:15;26.37;;;23.47;;
14015;SDS011;7083;48.854;9.158;2024-03-06T13:52:42;27.40;;;24.73;;
14015;SDS011;7083;48.854;9.158;2024-03-06T13:55:09;30.70;;;27.77;;
14015;SDS011;7083;48.854;9.158;2024-03-06T13:57:37;28.73;;;25.67;;
14015;SDS011;7083;48.854;9.158;2024-03-06T14:00:06;29.27;;;26.37;;
14015;SDS011;7083;48.854;9.158;2024-03-06T14:02:37;31.27;;;28.47;;
14015;SDS011;7083;48.854;9.158;2024-03-06T14:05:04;30.93;;;27.80;;
14015;SDS011;7083;48.854;9.158;2024-03-06T14:07:33;31.80;;;28.70;;
14015;SDS011;7083;48.854;9.158;2024-03-06T14:10:00;28.70;;;25.70;;
14015;SDS011;7083;48.854;9.158;2024-03-06T14:12:27;32.73;;;28.47;;
14015;SDS011;7083;48.854;9.158;2024-03-06T14:14:53;32.37;;;28.27;;
14015;SDS011;7083;48.854;9.158;2024-03-06T14:17:21;33.20;;;29.63;;
14015;SDS011;7083;48.854;9.158;2024-03-06T14:19:49;35.10;;;30.90;;
14015;SDS011;7083;48.854;9.158;2024-03-06T14:22:15;33.97;;;30.43;;
14015;SDS011;7083;48.854;9.158;2024-03-06T14:24:44;36.37;;;32.43;;
14015;SDS011;7083;48.854;9.158;2024-03-06T14:27:11;35.23;;;31.60;;
14015;SDS011;7083;48.854;9.158;2024-03-06T14:29:37;38.70;;;34.57;;
14015;SDS011;7083;48.854;9.158;2024-03-06T14:32:05;37.70;;;33.53;;
14015;SDS011;7083;48.854;9.158;2024-03-06T14:34:32;33.57;;;30.13;;
14015;SDS011;7083;48.854;9.158;2024-03-06T14:36:58;34.27;;;29.00;;
14015;SDS011;7083;48.854;9.158;2024-03-06T14:39:25;30.40;;;27.10;;
14015;SDS011;7083;48.854;9.158;2024-03-06T14:41:53;31.77;;;28.30;;
14015;SDS011;7083;48.854;9.158;2024-03-06T14:44:20;35.13;;;29.03;;
14015;SDS011;7083;48.854;9.158;2024-03-06T14:46:47;34.47;;;29.00;;
14015;SDS011;7083;48.854;9.158;2024-03-06T14:49:13;36.60;;;28.97;;
14015;SDS011;7083;48.854;9.158;2024-03-06T14:51:42;41.43;;;34.77;;
14015;SDS011;7083;48.854;9.158;2024-03-06T14:54:08;37.40;;;33.47;;
14015;SDS011;7083;48.854;9.158;2024-03-06T14:56:35;36.33;;;32.53;;
14015;SDS011;7083;48.854;9.158;2024-03-06T14:59:03;37.33;;;31.50;;
14015;SDS011;7083;48.854;9.158;2024-03-06T15:01:30;33.13;;;27.90;;
14015;SDS011;7083;48.854;9.158;2024-03-06T15:03:57;35.80;;;29.03;;
14015;SDS011;7083;48.854;9.158;2024-03-06T15:06:24;39.53;;;29.73;;
14015;SDS011;7083;48.854;9.158;2024-03-06T15:08:51;36.67;;;28.47;;
14015;SDS011;7083;48.854;9.158;2024-03-06T15:11:18;50.00;;;37.53;;
14015;SDS011;7083;48.854;9.158;2024-03-06T15:13:46;46.20;;;34.23;;